createdAt,value
2018-03-06T00:00:09.198Z,6.71
2018-03-06T00:01:24.811Z,6.77
2018-03-06T00:02:38.937Z,6.72
2018-03-06T00:03:53.486Z,6.72
2018-03-06T00:05:08.199Z,6.75
2018-03-06T00:06:22.341Z,6.8
2018-03-06T00:07:36.710Z,6.78
2018-03-06T00:08:51.100Z,6.8
2018-03-06T00:10:04.974Z,6.74
2018-03-06T00:11:18.664Z,6.67
2018-03-06T00:12:35.738Z,6.7
2018-03-06T00:13:50.322Z,6.71
2018-03-06T00:15:07.856Z,6.62
2018-03-06T00:16:24.850Z,6.54
2018-03-06T00:17:42.291Z,6.57
2018-03-06T00:19:00.202Z,6.5
2018-03-06T00:20:17.896Z,6.46
2018-03-06T00:21:33.656Z,6.39
2018-03-06T00:22:48.081Z,6.32
2018-03-06T00:24:02.286Z,6.32
2018-03-06T00:25:16.687Z,6.34
2018-03-06T00:26:30.833Z,6.32
2018-03-06T00:27:45.883Z,6.34
2018-03-06T00:29:04.204Z,6.28
2018-03-06T00:30:21.774Z,6.34
2018-03-06T00:31:41.759Z,6.29
2018-03-06T00:33:00.729Z,6.32
2018-03-06T00:34:17.780Z,6.26
2018-03-06T00:35:34.375Z,6.34
2018-03-06T00:36:50.227Z,6.22
2018-03-06T00:38:05.995Z,6.34
2018-03-06T00:39:20.331Z,6.26
2018-03-06T00:40:34.491Z,6.26
2018-03-06T00:41:48.946Z,6.2
2018-03-06T00:43:03.907Z,6.25
2018-03-06T00:44:19.968Z,6.26
2018-03-06T00:45:37.263Z,6.19
2018-03-06T00:46:52.748Z,6.25
2018-03-06T00:48:08.092Z,6.17
2018-03-06T00:49:23.622Z,6.12
2018-03-06T00:50:37.495Z,6.1
2018-03-06T00:51:51.888Z,6.05
2018-03-06T00:53:06.553Z,6.06
2018-03-06T00:54:22.368Z,6.05
2018-03-06T00:55:38.958Z,6.09
2018-03-06T00:56:55.452Z,6.05
2018-03-06T00:58:11.163Z,6.09
2018-03-06T00:59:26.340Z,6.1
2018-03-06T01:00:40.741Z,6.13
2018-03-06T01:01:54.363Z,6.05
2018-03-06T01:03:09.016Z,6.07
2018-03-06T01:04:23.419Z,6.09
2018-03-06T01:05:38.874Z,5.94
2018-03-06T01:06:55.120Z,5.94
2018-03-06T01:08:11.873Z,6.01
2018-03-06T01:09:28.911Z,5.94
2018-03-06T01:10:43.514Z,6.02
2018-03-06T01:11:59.853Z,6.05
2018-03-06T01:13:13.996Z,6.01
2018-03-06T01:14:28.836Z,6.01
2018-03-06T01:15:42.689Z,5.92
2018-03-06T01:16:56.852Z,5.94
2018-03-06T01:18:11.241Z,5.94
2018-03-06T01:19:40.328Z,5.97
2018-03-06T01:20:54.470Z,5.92
2018-03-06T01:22:09.029Z,5.83
2018-03-06T01:23:26.115Z,5.9
2018-03-06T01:24:40.941Z,5.84
2018-03-06T01:25:56.391Z,5.84
2018-03-06T01:27:14.284Z,5.84
2018-03-06T01:28:30.672Z,5.9
2018-03-06T01:29:44.874Z,5.76
2018-03-06T01:30:59.097Z,5.8
2018-03-06T01:32:12.715Z,5.83
2018-03-06T01:33:29.819Z,5.8
2018-03-06T01:34:45.954Z,5.79
2018-03-06T01:36:06.031Z,5.8
2018-03-06T01:37:23.193Z,5.76
2018-03-06T01:38:38.529Z,5.67
2018-03-06T01:39:53.617Z,5.65
2018-03-06T01:41:07.744Z,5.69
2018-03-06T01:42:21.324Z,5.69
2018-03-06T01:43:37.644Z,5.64
2018-03-06T01:44:53.627Z,5.62
2018-03-06T01:46:09.184Z,5.69
2018-03-06T01:47:39.894Z,5.67
2018-03-06T01:48:57.612Z,5.61
2018-03-06T01:50:14.496Z,5.54
2018-03-06T01:51:29.866Z,5.51
2018-03-06T01:52:44.238Z,5.49
2018-03-06T01:53:58.914Z,5.43
2018-03-06T01:55:13.284Z,5.26
2018-03-06T01:56:29.521Z,5.26
2018-03-06T01:57:45.014Z,5.31
2018-03-06T01:59:03.226Z,5.23
2018-03-06T02:00:21.845Z,5.23
2018-03-06T02:01:37.337Z,5.2
2018-03-06T02:02:51.906Z,5.22
2018-03-06T02:04:05.491Z,5.16
2018-03-06T02:05:19.354Z,5.1
2018-03-06T02:06:33.767Z,5.12
2018-03-06T02:07:47.885Z,5.12
2018-03-06T02:09:02.934Z,5.04
2018-03-06T02:10:17.833Z,5.01
2018-03-06T02:11:33.267Z,5.05
2018-03-06T02:12:46.917Z,5
2018-03-06T02:14:01.400Z,4.92
2018-03-06T02:15:15.493Z,4.87
2018-03-06T02:16:29.615Z,4.86
2018-03-06T02:17:43.994Z,4.9
2018-03-06T02:18:58.683Z,4.79
2018-03-06T02:20:12.814Z,4.92
2018-03-06T02:21:26.946Z,4.82
2018-03-06T02:22:42.305Z,4.83
2018-03-06T02:23:58.187Z,4.87
2018-03-06T02:25:15.111Z,4.84
2018-03-06T02:26:32.491Z,4.92
2018-03-06T02:27:48.266Z,5.04
2018-03-06T02:29:02.441Z,5.02
2018-03-06T02:30:17.308Z,5.01
2018-03-06T02:31:31.758Z,5.07
2018-03-06T02:32:45.920Z,5.02
2018-03-06T02:34:00.375Z,5.08
2018-03-06T02:35:14.874Z,5.13
2018-03-06T02:36:29.449Z,5.08
2018-03-06T02:37:45.948Z,5.16
2018-03-06T02:39:01.458Z,5.1
2018-03-06T02:40:17.529Z,5.12
2018-03-06T02:41:32.876Z,5.08
2018-03-06T02:42:46.179Z,5.13
2018-03-06T02:44:00.356Z,5.07
2018-03-06T02:45:14.468Z,5.1
2018-03-06T02:46:28.446Z,5.01
2018-03-06T02:47:42.936Z,5.12
2018-03-06T02:48:59.281Z,5.01
2018-03-06T02:50:15.425Z,5
2018-03-06T02:51:31.953Z,5
2018-03-06T02:52:45.569Z,4.97
2018-03-06T02:54:03.851Z,4.94
2018-03-06T02:55:18.255Z,5
2018-03-06T02:56:31.851Z,5.01
2018-03-06T02:57:45.979Z,5.01
2018-03-06T02:59:00.074Z,5.02
2018-03-06T03:00:14.440Z,4.98
2018-03-06T03:01:29.987Z,5.02
2018-03-06T03:02:45.238Z,5
2018-03-06T03:04:01.327Z,5.01
2018-03-06T03:05:18.031Z,5.02
2018-03-06T03:06:51.389Z,4.98
2018-03-06T03:08:08.542Z,4.98
2018-03-06T03:09:27.957Z,4.94
2018-03-06T03:10:43.664Z,5.01
2018-03-06T03:11:59.575Z,4.9
2018-03-06T03:13:13.936Z,4.95
2018-03-06T03:14:28.153Z,4.92
2018-03-06T03:15:42.015Z,5.04
2018-03-06T03:16:56.928Z,4.94
2018-03-06T03:18:11.029Z,4.84
2018-03-06T03:19:24.872Z,4.97
2018-03-06T03:20:39.678Z,4.94
2018-03-06T03:21:55.710Z,4.79
2018-03-06T03:23:11.772Z,4.82
2018-03-06T03:24:28.850Z,4.66
2018-03-06T03:25:45.611Z,4.68
2018-03-06T03:27:00.008Z,4.67
2018-03-06T03:28:14.132Z,4.71
2018-03-06T03:29:42.593Z,4.61
2018-03-06T03:30:56.632Z,4.71
2018-03-06T03:32:11.209Z,4.61
2018-03-06T03:33:27.155Z,4.57
2018-03-06T03:34:44.061Z,4.56
2018-03-06T03:35:59.961Z,4.56
2018-03-06T03:37:14.353Z,4.64
2018-03-06T03:38:43.061Z,4.52
2018-03-06T03:39:57.198Z,4.52
2018-03-06T03:41:11.632Z,4.49
2018-03-06T03:42:26.927Z,4.53
2018-03-06T03:43:42.509Z,4.42
2018-03-06T03:45:00.216Z,4.48
2018-03-06T03:46:17.533Z,4.45
2018-03-06T03:47:33.096Z,4.45
2018-03-06T03:48:47.248Z,4.38
2018-03-06T03:50:01.920Z,4.46
2018-03-06T03:51:17.650Z,4.38
2018-03-06T03:52:33.211Z,4.32
2018-03-06T03:53:50.684Z,4.32
2018-03-06T03:55:05.545Z,4.32
2018-03-06T03:56:21.832Z,4.24
2018-03-06T03:57:35.924Z,4.25
2018-03-06T03:58:49.762Z,4.2
2018-03-06T04:00:04.163Z,4.22
2018-03-06T04:01:18.637Z,4.16
2018-03-06T04:02:35.144Z,4.09
2018-03-06T04:03:49.417Z,4.13
2018-03-06T04:05:06.791Z,4.02
2018-03-06T04:06:21.100Z,3.95
2018-03-06T04:07:35.646Z,3.96
2018-03-06T04:08:51.405Z,3.94
2018-03-06T04:10:06.988Z,3.96
2018-03-06T04:11:22.593Z,3.91
2018-03-06T04:12:52.712Z,3.94
2018-03-06T04:14:09.497Z,3.91
2018-03-06T04:15:26.186Z,3.94
2018-03-06T04:16:42.246Z,3.86
2018-03-06T04:17:57.169Z,3.91
2018-03-06T04:19:11.192Z,3.96
2018-03-06T04:20:25.058Z,3.89
2018-03-06T04:21:40.046Z,3.95
2018-03-06T04:22:56.405Z,3.91
2018-03-06T04:24:13.887Z,3.89
2018-03-06T04:25:29.375Z,3.89
2018-03-06T04:26:45.456Z,3.91
2018-03-06T04:27:59.611Z,3.91
2018-03-06T04:29:13.457Z,3.89
2018-03-06T04:30:28.114Z,3.94
2018-03-06T04:31:42.607Z,3.78
2018-03-06T04:32:59.426Z,3.81
2018-03-06T04:34:15.541Z,3.77
2018-03-06T04:35:33.499Z,3.76
2018-03-06T04:36:50.780Z,3.78
2018-03-06T04:38:06.417Z,3.86
2018-03-06T04:39:20.714Z,3.74
2018-03-06T04:40:34.291Z,3.73
2018-03-06T04:41:48.409Z,3.68
2018-03-06T04:43:02.527Z,3.74
2018-03-06T04:44:17.498Z,3.7
2018-03-06T04:45:34.665Z,3.71
2018-03-06T04:46:52.400Z,3.59
2018-03-06T04:48:09.378Z,3.59
2018-03-06T04:49:25.568Z,3.59
2018-03-06T04:50:40.911Z,3.55
2018-03-06T04:51:55.207Z,3.53
2018-03-06T04:53:09.297Z,3.58
2018-03-06T04:54:23.178Z,3.53
2018-03-06T04:55:37.576Z,3.52
2018-03-06T04:56:51.969Z,3.56
2018-03-06T04:58:07.040Z,3.61
2018-03-06T04:59:23.203Z,3.53
2018-03-06T05:00:39.185Z,3.58
2018-03-06T05:01:54.789Z,3.52
2018-03-06T05:03:09.995Z,3.55
2018-03-06T05:04:24.386Z,3.63
2018-03-06T05:05:38.761Z,3.58
2018-03-06T05:06:53.454Z,3.59
2018-03-06T05:08:08.117Z,3.53
2018-03-06T05:09:23.086Z,3.53
2018-03-06T05:10:36.656Z,3.66
2018-03-06T05:11:53.868Z,3.55
2018-03-06T05:13:09.127Z,3.55
2018-03-06T05:14:23.423Z,3.49
2018-03-06T05:15:37.856Z,3.67
2018-03-06T05:16:52.562Z,3.59
2018-03-06T05:18:07.295Z,3.68
2018-03-06T05:19:22.658Z,3.56
2018-03-06T05:20:37.480Z,3.58
2018-03-06T05:21:52.844Z,3.59
2018-03-06T05:23:08.389Z,3.64
2018-03-06T05:24:24.910Z,3.64
2018-03-06T05:25:41.593Z,3.56
2018-03-06T05:26:58.708Z,3.52
2018-03-06T05:28:14.123Z,3.5
2018-03-06T05:29:28.513Z,3.49
2018-03-06T05:30:43.147Z,3.49
2018-03-06T05:31:56.977Z,3.45
2018-03-06T05:33:11.409Z,3.41
2018-03-06T05:34:25.553Z,3.45
2018-03-06T05:35:39.699Z,3.43
2018-03-06T05:36:55.720Z,3.37
2018-03-06T05:38:11.694Z,3.33
2018-03-06T05:39:28.820Z,3.37
2018-03-06T05:40:44.578Z,3.4
2018-03-06T05:42:00.806Z,3.36
2018-03-06T05:43:16.909Z,3.41
2018-03-06T05:44:34.288Z,3.45
2018-03-06T05:45:52.484Z,3.41
2018-03-06T05:47:08.211Z,3.4
2018-03-06T05:48:24.421Z,3.41
2018-03-06T05:49:38.536Z,3.37
2018-03-06T05:50:52.342Z,3.31
2018-03-06T05:52:06.569Z,3.4
2018-03-06T05:53:20.561Z,3.24
2018-03-06T05:54:33.898Z,3.29
2018-03-06T05:55:49.475Z,3.3
2018-03-06T05:57:04.132Z,3.3
2018-03-06T05:58:21.831Z,3.3
2018-03-06T05:59:38.295Z,3.31
2018-03-06T06:00:54.071Z,3.37
2018-03-06T06:02:12.407Z,3.4
2018-03-06T06:03:29.287Z,3.41
2018-03-06T06:04:43.123Z,3.37
2018-03-06T06:05:57.336Z,3.33
2018-03-06T06:07:11.418Z,3.4
2018-03-06T06:08:26.512Z,3.48
2018-03-06T06:09:41.069Z,3.37
2018-03-06T06:10:55.771Z,3.41
2018-03-06T06:12:10.744Z,3.52
2018-03-06T06:13:24.845Z,3.53
2018-03-06T06:14:38.702Z,3.55
2018-03-06T06:15:53.235Z,3.61
2018-03-06T06:17:07.054Z,3.66
2018-03-06T06:18:20.856Z,3.64
2018-03-06T06:19:34.660Z,3.55
2018-03-06T06:20:48.700Z,3.66
2018-03-06T06:22:02.761Z,3.59
2018-03-06T06:23:17.078Z,3.66
2018-03-06T06:24:31.503Z,3.7
2018-03-06T06:25:46.313Z,3.76
2018-03-06T06:27:01.425Z,3.73
2018-03-06T06:28:15.088Z,3.76
2018-03-06T06:29:28.713Z,3.85
2018-03-06T06:30:43.312Z,3.92
2018-03-06T06:31:57.392Z,3.91
2018-03-06T06:33:11.212Z,3.99
2018-03-06T06:34:25.572Z,3.96
2018-03-06T06:35:39.639Z,3.96
2018-03-06T06:36:53.688Z,4.03
2018-03-06T06:38:07.495Z,4.06
2018-03-06T06:39:21.548Z,4.1
2018-03-06T06:40:35.637Z,4.12
2018-03-06T06:41:50.187Z,4.06
2018-03-06T06:43:04.791Z,4
2018-03-06T06:44:19.085Z,4.14
2018-03-06T06:45:33.644Z,4.14
2018-03-06T06:46:47.492Z,4.13
2018-03-06T06:48:01.670Z,4.18
2018-03-06T06:49:16.262Z,4.3
2018-03-06T06:50:30.560Z,4.3
2018-03-06T06:51:44.859Z,4.3
2018-03-06T06:52:58.923Z,4.3
2018-03-06T06:54:12.783Z,4.27
2018-03-06T06:55:27.067Z,4.34
2018-03-06T06:56:41.369Z,4.27
2018-03-06T06:57:55.278Z,4.31
2018-03-06T06:59:09.346Z,4.27
2018-03-06T07:00:23.864Z,4.24
2018-03-06T07:01:37.905Z,4.24
2018-03-06T07:02:52.443Z,4.43
2018-03-06T07:04:07.026Z,4.34
2018-03-06T07:05:21.143Z,4.46
2018-03-06T07:06:35.195Z,4.39
2018-03-06T07:07:49.003Z,4.42
2018-03-06T07:09:02.565Z,4.45
2018-03-06T07:10:16.362Z,4.43
2018-03-06T07:11:30.165Z,4.38
2018-03-06T07:12:44.467Z,4.42
2018-03-06T07:13:58.270Z,4.48
2018-03-06T07:15:12.323Z,4.49
2018-03-06T07:16:27.121Z,4.48
2018-03-06T07:17:41.651Z,4.43
2018-03-06T07:18:55.963Z,4.53
2018-03-06T07:20:10.255Z,4.46
2018-03-06T07:21:24.332Z,4.52
2018-03-06T07:22:38.654Z,4.52
2018-03-06T07:23:52.940Z,4.46
2018-03-06T07:25:06.470Z,4.61
2018-03-06T07:26:20.789Z,4.5
2018-03-06T07:27:34.855Z,4.5
2018-03-06T07:28:49.389Z,4.58
2018-03-06T07:30:04.436Z,4.61
2018-03-06T07:31:18.861Z,4.64
2018-03-06T07:32:33.178Z,4.64
2018-03-06T07:33:47.759Z,4.68
2018-03-06T07:35:02.100Z,4.64
2018-03-06T07:36:16.549Z,4.68
2018-03-06T07:37:30.362Z,4.71
2018-03-06T07:38:44.424Z,4.92
2018-03-06T07:39:58.509Z,4.87
2018-03-06T07:41:12.590Z,4.98
2018-03-06T07:42:26.900Z,5.04
2018-03-06T07:43:40.707Z,4.97
2018-03-06T07:44:55.028Z,5.05
2018-03-06T07:46:09.068Z,5.1
2018-03-06T07:47:23.126Z,5.19
2018-03-06T07:48:37.179Z,5.23
2018-03-06T07:49:51.223Z,5.19
2018-03-06T07:51:05.343Z,5.2
2018-03-06T07:52:20.185Z,5.16
2018-03-06T07:54:04.036Z,5.33
2018-03-06T07:55:19.053Z,5.36
2018-03-06T07:56:33.452Z,5.38
2018-03-06T07:57:47.905Z,5.26
2018-03-06T07:59:01.750Z,5.29
2018-03-06T08:00:15.565Z,5.31
2018-03-06T08:01:29.952Z,5.26
2018-03-06T08:02:44.734Z,5.43
2018-03-06T08:03:58.682Z,5.43
2018-03-06T08:05:12.980Z,5.52
2018-03-06T08:06:27.297Z,5.59
2018-03-06T08:07:41.794Z,5.56
2018-03-06T08:08:56.184Z,5.54
2018-03-06T08:10:10.280Z,5.43
2018-03-06T08:11:24.634Z,5.47
2018-03-06T08:12:39.439Z,5.43
2018-03-06T08:13:53.763Z,5.54
2018-03-06T08:15:07.765Z,5.34
2018-03-06T08:16:22.105Z,5.37
2018-03-06T08:17:35.923Z,5.47
2018-03-06T08:18:50.770Z,5.4
2018-03-06T08:20:04.843Z,5.37
2018-03-06T08:21:19.162Z,5.49
2018-03-06T08:22:33.454Z,5.46
2018-03-06T08:23:48.002Z,5.26
2018-03-06T08:25:02.350Z,5.28
2018-03-06T08:26:16.424Z,5.31
2018-03-06T08:27:30.984Z,5.41
2018-03-06T08:28:45.404Z,5.49
2018-03-06T08:29:59.508Z,5.46
2018-03-06T08:31:14.068Z,5.49
2018-03-06T08:32:27.897Z,5.54
2018-03-06T08:33:42.168Z,5.58
2018-03-06T08:34:56.632Z,5.49
2018-03-06T08:36:10.406Z,5.41
2018-03-06T08:37:25.060Z,5.43
2018-03-06T08:38:39.362Z,5.54
2018-03-06T08:39:53.228Z,5.52
2018-03-06T08:41:07.431Z,5.67
2018-03-06T08:42:21.386Z,5.61
2018-03-06T08:43:35.716Z,5.62
2018-03-06T08:44:49.871Z,5.69
2018-03-06T08:46:04.736Z,5.74
2018-03-06T08:47:18.778Z,5.8
2018-03-06T08:48:32.767Z,5.88
2018-03-06T08:49:47.622Z,5.88
2018-03-06T08:51:02.431Z,5.84
2018-03-06T08:52:16.763Z,5.95
2018-03-06T08:53:31.047Z,5.99
2018-03-06T08:54:45.609Z,6.05
2018-03-06T08:56:00.250Z,6.02
2018-03-06T08:57:14.302Z,6.07
2018-03-06T08:58:28.609Z,6.05
2018-03-06T08:59:42.649Z,6.19
2018-03-06T09:00:57.240Z,6.25
2018-03-06T09:02:11.302Z,6.29
2018-03-06T09:03:25.438Z,6.43
2018-03-06T09:04:39.779Z,6.49
2018-03-06T09:05:53.600Z,6.56
2018-03-06T09:07:07.898Z,6.54
2018-03-06T09:08:22.681Z,6.59
2018-03-06T09:09:37.532Z,6.74
2018-03-06T09:10:52.044Z,6.72
2018-03-06T09:12:06.106Z,6.85
2018-03-06T09:13:20.507Z,6.82
2018-03-06T09:14:34.816Z,6.9
2018-03-06T09:15:48.384Z,6.97
2018-03-06T09:17:02.930Z,7.04
2018-03-06T09:18:16.925Z,7.01
2018-03-06T09:19:30.541Z,7.13
2018-03-06T09:20:44.332Z,7.15
2018-03-06T09:21:58.638Z,7.26
2018-03-06T09:23:12.708Z,7.31
2018-03-06T09:24:27.626Z,7.14
2018-03-06T09:25:41.747Z,6.97
2018-03-06T09:26:56.042Z,7.05
2018-03-06T09:28:09.586Z,6.97
2018-03-06T09:29:23.387Z,7.04
2018-03-06T09:30:36.949Z,7.11
2018-03-06T09:31:51.318Z,7.21
2018-03-06T09:33:05.908Z,7.29
2018-03-06T09:34:19.967Z,7.23
2018-03-06T09:35:34.544Z,7.31
2018-03-06T09:36:48.337Z,7.47
2018-03-06T09:38:02.976Z,7.41
2018-03-06T09:39:17.119Z,7.44
2018-03-06T09:40:31.007Z,7.36
2018-03-06T09:41:45.288Z,7.41
2018-03-06T09:42:59.620Z,7.46
2018-03-06T09:44:14.089Z,7.51
2018-03-06T09:45:28.374Z,7.59
2018-03-06T09:46:42.199Z,7.69
2018-03-06T09:47:56.496Z,7.59
2018-03-06T09:49:10.771Z,7.58
2018-03-06T09:50:24.305Z,7.62
2018-03-06T09:51:38.705Z,7.67
2018-03-06T09:52:52.987Z,7.83
2018-03-06T09:54:07.045Z,7.84
2018-03-06T09:55:20.860Z,8.01
2018-03-06T09:56:35.321Z,7.85
2018-03-06T09:57:49.402Z,7.75
2018-03-06T09:59:03.601Z,7.78
2018-03-06T10:00:17.513Z,7.78
2018-03-06T10:01:31.890Z,7.96
2018-03-06T10:02:45.455Z,8.01
2018-03-06T10:03:59.560Z,8.08
2018-03-06T10:05:13.507Z,8.24
2018-03-06T10:06:27.355Z,8.23
2018-03-06T10:07:41.939Z,8.35
2018-03-06T10:08:55.747Z,8.42
2018-03-06T10:10:09.917Z,8.5
2018-03-06T10:11:24.564Z,8.45
2018-03-06T10:12:38.640Z,8.57
2018-03-06T10:13:52.486Z,8.44
2018-03-06T10:15:06.816Z,8.57
2018-03-06T10:16:20.795Z,8.36
2018-03-06T10:17:35.236Z,8.36
2018-03-06T10:18:49.557Z,8.34
2018-03-06T10:20:04.144Z,8.32
2018-03-06T10:21:18.454Z,8.52
2018-03-06T10:22:33.178Z,8.6
2018-03-06T10:23:47.760Z,8.78
2018-03-06T10:25:02.446Z,8.79
2018-03-06T10:26:16.505Z,8.75
2018-03-06T10:27:31.100Z,8.72
2018-03-06T10:28:44.987Z,8.63
2018-03-06T10:29:59.051Z,8.78
2018-03-06T10:31:13.208Z,9.02
2018-03-06T10:32:27.627Z,9.18
2018-03-06T10:33:41.238Z,9.19
2018-03-06T10:34:55.554Z,9.29
2018-03-06T10:36:09.908Z,9.16
2018-03-06T10:37:23.989Z,9.15
2018-03-06T10:38:37.876Z,9.19
2018-03-06T10:39:51.984Z,9.13
2018-03-06T10:41:06.584Z,9.37
2018-03-06T10:42:21.509Z,9.37
2018-03-06T10:43:35.332Z,9.36
2018-03-06T10:44:49.431Z,9.4
2018-03-06T10:46:03.278Z,9.33
2018-03-06T10:47:17.599Z,9.3
2018-03-06T10:48:31.424Z,9.4
2018-03-06T10:49:46.162Z,9.55
2018-03-06T10:51:15.501Z,9.66
2018-03-06T10:52:29.817Z,9.82
2018-03-06T10:53:44.088Z,9.84
2018-03-06T10:54:58.639Z,9.85
2018-03-06T10:56:13.131Z,10.07
2018-03-06T10:57:27.489Z,9.91
2018-03-06T10:58:41.560Z,9.77
2018-03-06T11:00:10.321Z,9.74
2018-03-06T11:02:38.762Z,9.69
2018-03-06T11:03:53.058Z,9.56
2018-03-06T11:05:07.386Z,9.58
2018-03-06T11:06:21.447Z,9.67
2018-03-06T11:07:35.977Z,9.77
2018-03-06T11:08:50.186Z,9.94
2018-03-06T11:10:03.979Z,10.18
2018-03-06T11:11:18.341Z,10.23
2018-03-06T11:12:32.206Z,10.2
2018-03-06T11:13:46.331Z,10.2
2018-03-06T11:15:00.721Z,10.41
2018-03-06T11:16:14.901Z,10.36
2018-03-06T11:17:28.954Z,10.42
2018-03-06T11:18:43.278Z,10.39
2018-03-06T11:19:57.573Z,10.42
2018-03-06T11:21:12.114Z,10.39
2018-03-06T11:22:26.070Z,10.42
2018-03-06T11:23:40.499Z,10.46
2018-03-06T11:24:54.584Z,10.45
2018-03-06T11:26:08.695Z,10.53
2018-03-06T11:27:22.773Z,10.38
2018-03-06T11:28:36.915Z,10.55
2018-03-06T11:29:51.275Z,10.49
2018-03-06T11:31:05.439Z,10.67
2018-03-06T11:32:19.499Z,10.58
2018-03-06T11:33:33.330Z,10.71
2018-03-06T11:34:47.675Z,10.82
2018-03-06T11:36:01.993Z,11.01
2018-03-06T11:37:15.935Z,11.13
2018-03-06T11:38:29.788Z,10.98
2018-03-06T11:39:44.223Z,11.16
2018-03-06T11:40:58.308Z,11.01
2018-03-06T11:42:12.296Z,10.92
2018-03-06T11:43:26.930Z,11.02
2018-03-06T11:44:41.510Z,11.08
2018-03-06T11:45:55.393Z,11.26
2018-03-06T11:47:09.485Z,11.08
2018-03-06T11:48:24.229Z,11
2018-03-06T11:49:38.575Z,11.01
2018-03-06T11:50:52.429Z,10.9
2018-03-06T11:52:06.269Z,10.84
2018-03-06T11:53:20.901Z,10.71
2018-03-06T11:54:35.574Z,10.8
2018-03-06T11:55:50.038Z,10.8
2018-03-06T11:57:04.823Z,10.87
2018-03-06T11:58:19.199Z,11.04
2018-03-06T11:59:33.246Z,11.01
2018-03-06T12:00:47.702Z,11.08
2018-03-06T12:02:02.174Z,11.25
2018-03-06T12:03:16.870Z,11.34
2018-03-06T12:04:30.971Z,11.25
2018-03-06T12:05:44.792Z,11.31
2018-03-06T12:06:59.617Z,11.12
2018-03-06T12:08:13.728Z,11.05
2018-03-06T12:09:28.328Z,11.01
2018-03-06T12:10:42.697Z,11.15
2018-03-06T12:11:57.550Z,11.23
2018-03-06T12:13:11.863Z,11.26
2018-03-06T12:14:25.853Z,11.2
2018-03-06T12:15:39.709Z,11.34
2018-03-06T12:16:53.342Z,11.35
2018-03-06T12:18:07.424Z,11.33
2018-03-06T12:19:21.955Z,11.51
2018-03-06T12:20:36.036Z,11.43
2018-03-06T12:21:50.610Z,11.67
2018-03-06T12:23:04.205Z,11.67
2018-03-06T12:24:18.009Z,11.86
2018-03-06T12:25:32.305Z,11.97
2018-03-06T12:26:46.360Z,12.02
2018-03-06T12:28:00.401Z,11.96
2018-03-06T12:29:14.536Z,12.02
2018-03-06T12:30:28.974Z,12.07
2018-03-06T12:31:43.273Z,12.05
2018-03-06T12:32:57.649Z,12
2018-03-06T12:34:12.169Z,11.85
2018-03-06T12:35:27.034Z,11.68
2018-03-06T12:36:41.115Z,11.74
2018-03-06T12:37:55.181Z,11.85
2018-03-06T12:39:08.798Z,11.93
2018-03-06T12:40:23.134Z,11.95
2018-03-06T12:41:37.805Z,12.15
2018-03-06T12:42:52.538Z,12.12
2018-03-06T12:44:06.855Z,12.17
2018-03-06T12:45:21.188Z,12.14
2018-03-06T12:46:35.036Z,12.26
2018-03-06T12:47:49.461Z,12.26
2018-03-06T12:49:03.312Z,12.25
2018-03-06T12:50:17.429Z,12.39
2018-03-06T12:51:31.538Z,12.35
2018-03-06T12:52:45.395Z,12.4
2018-03-06T12:53:59.238Z,12.43
2018-03-06T12:55:13.583Z,12.57
2018-03-06T12:56:28.156Z,12.48
2018-03-06T12:57:42.620Z,12.5
2018-03-06T12:58:57.177Z,12.58
2018-03-06T13:00:11.027Z,12.63
2018-03-06T13:01:25.174Z,12.66
2018-03-06T13:02:39.261Z,12.66
2018-03-06T13:03:53.504Z,12.44
2018-03-06T13:05:07.868Z,12.53
2018-03-06T13:06:22.269Z,12.54
2018-03-06T13:07:36.739Z,12.44
2018-03-06T13:08:51.075Z,12.26
2018-03-06T13:10:05.260Z,12.17
2018-03-06T13:11:19.083Z,12.25
2018-03-06T13:12:48.275Z,12.28
2018-03-06T13:14:02.738Z,12.36
2018-03-06T13:15:16.665Z,12.32
2018-03-06T13:16:29.978Z,12.29
2018-03-06T13:17:44.636Z,12.35
2018-03-06T13:18:59.088Z,12.53
2018-03-06T13:20:13.142Z,12.53
2018-03-06T13:21:27.728Z,12.58
2018-03-06T13:22:42.074Z,12.48
2018-03-06T13:23:55.930Z,12.39
2018-03-06T13:25:09.521Z,12.4
2018-03-06T13:26:23.827Z,12.48
2018-03-06T13:30:35.573Z,12.69
2018-03-06T13:31:49.652Z,12.57
2018-03-06T13:33:19.181Z,12.61
2018-03-06T13:34:32.973Z,12.63
2018-03-06T13:35:47.502Z,12.69
2018-03-06T13:37:02.168Z,12.84
2018-03-06T13:38:16.493Z,12.87
2018-03-06T13:39:30.824Z,12.7
2018-03-06T13:40:44.864Z,12.83
2018-03-06T13:41:59.274Z,12.88
2018-03-06T13:43:13.653Z,12.78
2018-03-06T13:44:27.226Z,12.81
2018-03-06T13:45:41.566Z,12.94
2018-03-06T13:46:55.609Z,12.98
2018-03-06T13:48:09.424Z,13.01
2018-03-06T13:49:23.672Z,12.98
2018-03-06T13:50:38.234Z,12.9
2018-03-06T13:51:52.802Z,12.88
2018-03-06T13:53:07.203Z,12.78
2018-03-06T13:54:21.817Z,12.8
2018-03-06T13:55:35.586Z,12.87
2018-03-06T13:56:49.492Z,12.91
2018-03-06T13:58:03.389Z,13.02
2018-03-06T13:59:18.236Z,13.01
2018-03-06T14:00:33.787Z,13.09
2018-03-06T14:01:48.644Z,13.16
2018-03-06T14:03:03.168Z,13.21
2018-03-06T14:04:17.916Z,13.37
2018-03-06T14:05:33.021Z,13.33
2018-03-06T14:06:47.780Z,13.37
2018-03-06T14:08:02.144Z,13.42
2018-03-06T14:09:16.265Z,13.43
2018-03-06T14:10:30.703Z,13.43
2018-03-06T14:11:45.266Z,13.43
2018-03-06T14:12:59.940Z,13.4
2018-03-06T14:14:14.271Z,13.43
2018-03-06T14:15:28.167Z,13.45
2018-03-06T14:16:42.329Z,13.52
2018-03-06T14:17:56.187Z,13.55
2018-03-06T14:19:09.670Z,13.55
2018-03-06T14:20:23.801Z,13.5
2018-03-06T14:21:38.098Z,13.45
2018-03-06T14:22:52.479Z,13.4
2018-03-06T14:24:07.296Z,13.33
2018-03-06T14:25:22.344Z,13.24
2018-03-06T14:26:36.675Z,13.23
2018-03-06T14:27:50.770Z,13.2
2018-03-06T14:29:04.399Z,13.17
2018-03-06T14:30:19.009Z,13.06
2018-03-06T14:31:48.341Z,13.06
2018-03-06T14:33:02.423Z,13.01
2018-03-06T14:34:16.602Z,13.16
2018-03-06T14:35:30.969Z,13.11
2018-03-06T14:36:45.120Z,13.08
2018-03-06T14:37:58.754Z,13.2
2018-03-06T14:39:12.878Z,13.21
2018-03-06T14:40:27.276Z,13.2
2018-03-06T14:41:41.371Z,13.2
2018-03-06T14:42:56.358Z,13.17
2018-03-06T14:44:10.439Z,13.19
2018-03-06T14:45:24.964Z,13.02
2018-03-06T14:46:38.851Z,13.01
2018-03-06T14:47:53.184Z,13.02
2018-03-06T14:49:07.005Z,13.03
2018-03-06T14:50:20.846Z,13.12
2018-03-06T14:51:35.277Z,13.23
2018-03-06T14:52:49.179Z,13.26
2018-03-06T14:54:03.003Z,13.23
2018-03-06T14:55:17.857Z,13.26
2018-03-06T14:56:32.782Z,13.37
2018-03-06T14:57:47.500Z,13.24
2018-03-06T14:59:02.162Z,13.36
2018-03-06T15:00:15.826Z,13.27
2018-03-06T15:01:44.889Z,13.23
2018-03-06T15:02:58.735Z,13.3
2018-03-06T15:04:13.118Z,13.27
2018-03-06T15:05:27.266Z,13.3
2018-03-06T15:06:41.999Z,13.28
2018-03-06T15:07:56.546Z,13.24
2018-03-06T15:09:10.662Z,13.27
2018-03-06T15:10:25.465Z,13.28
2018-03-06T15:11:39.334Z,13.21
2018-03-06T15:12:53.453Z,13.2
2018-03-06T15:14:08.325Z,13.21
2018-03-06T15:15:22.801Z,13.16
2018-03-06T15:16:36.643Z,13.13
2018-03-06T15:17:50.735Z,13.19
2018-03-06T15:19:05.534Z,13.23
2018-03-06T15:20:19.646Z,13.27
2018-03-06T15:21:33.492Z,13.21
2018-03-06T15:22:47.790Z,13.2
2018-03-06T15:24:02.605Z,13.12
2018-03-06T15:25:17.286Z,13.19
2018-03-06T15:26:31.423Z,13.09
2018-03-06T15:27:45.515Z,13.16
2018-03-06T15:28:59.983Z,13.2
2018-03-06T15:30:14.395Z,13.12
2018-03-06T15:31:28.328Z,13.19
2018-03-06T15:32:42.946Z,13.23
2018-03-06T15:33:57.539Z,13.19
2018-03-06T15:35:12.020Z,13.24
2018-03-06T15:36:26.440Z,13.21
2018-03-06T15:37:40.859Z,13.21
2018-03-06T15:38:55.190Z,13.23
2018-03-06T15:40:09.298Z,13.21
2018-03-06T15:41:23.137Z,13.23
2018-03-06T15:42:36.761Z,13.06
2018-03-06T15:43:50.726Z,13.16
2018-03-06T15:45:05.299Z,13.02
2018-03-06T15:46:19.912Z,13.08
2018-03-06T15:47:34.297Z,13.12
2018-03-06T15:48:48.511Z,13.12
2018-03-06T15:50:03.063Z,13.09
2018-03-06T15:51:17.007Z,13.08
2018-03-06T15:52:31.311Z,13.17
2018-03-06T15:53:45.680Z,13.13
2018-03-06T15:54:59.763Z,13.19
2018-03-06T15:56:13.616Z,13.17
2018-03-06T15:57:27.458Z,13.16
2018-03-06T15:58:42.009Z,13.13
2018-03-06T15:59:56.068Z,13.06
2018-03-06T16:01:09.905Z,13.17
2018-03-06T16:02:24.578Z,13.19
2018-03-06T16:03:39.187Z,13.12
2018-03-06T16:04:53.830Z,13.02
2018-03-06T16:06:07.667Z,12.98
2018-03-06T16:07:21.237Z,13.02
2018-03-06T16:08:35.310Z,13.03
2018-03-06T16:09:49.392Z,12.91
2018-03-06T16:11:03.541Z,12.86
2018-03-06T16:12:17.662Z,12.75
2018-03-06T16:13:31.995Z,12.78
2018-03-06T16:14:46.066Z,12.78
2018-03-06T16:16:00.143Z,12.78
2018-03-06T16:17:14.447Z,12.75
2018-03-06T16:18:29.396Z,12.7
2018-03-06T16:19:42.969Z,12.69
2018-03-06T16:20:57.424Z,12.78
2018-03-06T16:22:11.826Z,12.7
2018-03-06T16:23:26.194Z,12.65
2018-03-06T16:24:40.478Z,12.57
2018-03-06T16:25:54.779Z,12.45
2018-03-06T16:27:08.329Z,12.54
2018-03-06T16:28:22.852Z,12.43
2018-03-06T16:29:37.198Z,12.37
2018-03-06T16:30:51.319Z,12.36
2018-03-06T16:32:05.909Z,12.3
2018-03-06T16:33:20.264Z,12.26
2018-03-06T16:34:34.784Z,12.28